Lester B. Pearson International Airport
CYYZ : now visible

Airfield :











YOU CAN JOIN US ON...

 
LOGIN :

Register | Disclaimer

   EN    FR    IT 

 









Legend :    VFR   Marginal VFR   IFR   Intensive IFR   Very Intensive IFR
Visi :
Ceiling :
>= 8 km
>= 3000ft
5 to 8 km
1000 to 3000 ft
1500m to 5 km
500 to 1000 ft
800 to 1500m
200 to 500 ft
< 800m
< 200 ft
Symbols :   Thunderstorms  Fog  Heavy snow  Heavy precipitations  Wind > 20 kt






- Airport Elevation : 569 ft
- IATA code : YYZ


CYYZ - Lester B. Pearson International

CURRENT METAR :
  • 080700Z 15007KT 15SM SCT080 M03/M05 A3030 RMK AC3 SLP270

EXPIRED METARs :
  • 080600Z 15009KT 15SM FEW180 M03/M06 A3031 RMK AC1 AC TR SLP273
  • 080500Z 15005KT 15SM FEW180 M03/M07 A3033 RMK AC1 AC TR SLP281

TAF TAF CYYZ
Valid from the 08 at 06:00 until the 09 at 12:00 UTC


080539Z 0806/0912 15005KT P6SM FEW220
FM080900 19008KT P6SM SCT070 BKN220
FM081500 20013G23KT P6SM BKN180
BECMG 0815/0817 20018G30KT
FM082200 21015G25KT P6SM BKN030 BKN150
FM090000 22012G22KT P6SM -SHRA OVC020
FM090300 22010G20KT 6SM -RA BR FEW010 OVC020
BECMG 0905/0907 21010KT RMK NXT FCST BY 080900Z



MET'MAP, your aeronautical weather chart ! - Copyright ORBIFLY December 2007 - Disclaimer

ORBIFLY MET'MAP TEAM :

Programming & Development : Alexandra Zaïnal
Concept & original design : Baudouin d'Aumeries
Assistance for programming : Marc-Olivier Méhu
Technical & hardware support : Manuel Goepfert

Contact : metmap@orbifly.com




SOURCES & CREDITS :

   NOAA       Earth
Advisory